Time;durP1;ratioP1;P1;durP2;ratioP2;P2;SDS_P1;SDS_P2;PMS_P1;PMS_P2;Temp;Humidity;BMP_temperature;BMP_pressure;BME280_temperature;BME280_humidity;BME280_pressure;Samples;Min_cycle;Max_cycle;Signal;HPM_P1;HPM_P2
2023/03/04 00:09:07;;;;;;;10.63;5.82;;;1.60;99.90;;;;;;20906765;28;20382;-59
2023/03/04 00:19:10;;;;;;;8.48;1.75;;;1.40;99.90;;;;;;20907348;28;20037;-59
2023/03/04 00:29:11;;;;;;;6.82;1.17;;;1.00;99.90;;;;;;20906514;28;20576;-58
2023/03/04 00:39:13;;;;;;;8.07;1.30;;;0.40;99.90;;;;;;20906415;28;20413;-59
2023/03/04 00:49:15;;;;;;;8.30;1.42;;;0.10;99.90;;;;;;20905032;28;20478;-65
2023/03/04 00:59:16;;;;;;;10.98;1.75;;;0.20;99.90;;;;;;20903235;28;20595;-59
2023/03/04 01:09:18;;;;;;;6.15;2.00;;;0.60;99.90;;;;;;20903768;28;20098;-58
2023/03/04 01:19:20;;;;;;;6.22;1.45;;;0.80;99.90;;;;;;20901554;28;20179;-59
2023/03/04 01:29:22;;;;;;;8.60;1.27;;;0.70;99.90;;;;;;20902790;28;20036;-66
2023/03/04 01:39:23;;;;;;;3.88;1.00;;;0.60;99.90;;;;;;20901124;28;20402;-65
2023/03/04 01:49:26;;;;;;;8.32;1.27;;;0.60;99.90;;;;;;20902137;28;20033;-65
2023/03/04 01:59:30;;;;;;;5.57;1.10;;;0.40;99.90;;;;;;20902282;28;20082;-58
2023/03/04 02:09:33;;;;;;;5.80;1.10;;;0.30;99.90;;;;;;20899909;28;20490;-65
2023/03/04 02:19:55;;;;;;;3.63;1.00;;;0.50;99.90;;;;;;20900992;28;20029;-58
2023/03/04 02:29:57;;;;;;;3.13;1.00;;;0.40;99.90;;;;;;20908333;28;20103;-65
2023/03/04 02:39:58;;;;;;;6.43;1.55;;;0.30;99.90;;;;;;20897138;28;20041;-59
2023/03/04 02:50:00;;;;;;;5.32;1.60;;;0.20;99.90;;;;;;20914297;28;20028;-65
2023/03/04 03:00:03;;;;;;;7.53;1.10;;;-0.10;99.90;;;;;;20912186;28;20490;-66
2023/03/04 03:10:05;;;;;;;8.65;1.30;;;-0.30;99.90;;;;;;20912833;28;20064;-66
2023/03/04 03:20:08;;;;;;;5.43;1.40;;;-0.40;99.90;;;;;;20912193;28;20040;-65
2023/03/04 03:30:15;;;;;;;5.38;1.00;;;-0.50;99.90;;;;;;20913346;28;20433;-59
2023/03/04 03:40:17;;;;;;;3.67;0.98;;;-0.70;99.90;;;;;;20910107;28;20029;-65
2023/03/04 03:50:19;;;;;;;5.00;1.08;;;-0.80;99.90;;;;;;20908666;28;20032;-62
2023/03/04 04:00:21;;;;;;;4.85;1.75;;;-0.90;99.90;;;;;;20908665;28;20041;-57
2023/03/04 04:10:22;;;;;;;10.32;2.30;;;-1.10;99.90;;;;;;20908275;28;20129;-57
2023/03/04 04:20:24;;;;;;;6.30;2.90;;;-1.20;99.90;;;;;;20907257;28;20033;-58
2023/03/04 04:30:25;;;;;;;13.25;6.03;;;-1.30;99.90;;;;;;20907045;28;20045;-58
2023/03/04 04:40:27;;;;;;;19.25;7.20;;;-1.20;99.90;;;;;;20904381;28;20087;-62
2023/03/04 04:50:29;;;;;;;15.43;6.00;;;-1.20;99.90;;;;;;20904366;28;20060;-58
2023/03/04 05:00:30;;;;;;;20.50;9.70;;;-1.10;99.90;;;;;;20904260;28;20449;-66
2023/03/04 05:10:32;;;;;;;19.17;8.40;;;-1.20;99.90;;;;;;20904497;28;20106;-57
2023/03/04 05:20:34;;;;;;;22.77;10.27;;;-1.40;99.90;;;;;;20900764;28;20051;-66
2023/03/04 05:30:35;;;;;;;23.65;9.88;;;-1.50;99.90;;;;;;20901346;28;20041;-66
2023/03/04 05:40:38;;;;;;;32.35;12.80;;;-1.60;99.90;;;;;;20901084;28;20090;-66
2023/03/04 05:50:39;;;;;;;34.28;15.00;;;-1.40;99.90;;;;;;20901477;28;20041;-66
2023/03/04 06:00:41;;;;;;;34.15;15.43;;;-1.40;99.90;;;;;;20822010;28;20467;-65
2023/03/04 06:10:43;;;;;;;38.85;17.73;;;-1.40;99.90;;;;;;20956152;28;20095;-65
2023/03/04 06:20:44;;;;;;;39.50;18.30;;;-1.30;99.90;;;;;;20916829;28;20482;-66
2023/03/04 06:30:46;;;;;;;38.10;17.92;;;-1.20;99.90;;;;;;20916096;28;20400;-66
2023/03/04 06:40:48;;;;;;;33.28;14.40;;;-1.00;99.90;;;;;;20912823;28;20043;-66
2023/03/04 06:50:49;;;;;;;42.65;19.15;;;-0.70;99.90;;;;;;20897463;28;20040;-66
2023/03/04 07:00:51;;;;;;;56.58;26.30;;;-0.50;99.90;;;;;;20912637;28;20087;-65
2023/03/04 07:10:52;;;;;;;62.15;27.38;;;-0.30;99.90;;;;;;20912028;28;20103;-65
2023/03/04 07:20:54;;;;;;;64.70;31.55;;;0.10;99.90;;;;;;20910773;28;20037;-56
2023/03/04 07:30:56;;;;;;;56.08;27.23;;;0.60;99.90;;;;;;20910076;28;20490;-65
2023/03/04 07:40:58;;;;;;;49.22;25.55;;;1.30;99.90;;;;;;20910377;28;20040;-56
2023/03/04 07:51:13;;;;;;;40.30;22.13;;;2.10;99.90;;;;;;20909693;28;20029;-65
2023/03/04 08:01:20;;;;;;;30.05;18.50;;;3.40;99.90;;;;;;20910354;28;20421;-56
2023/03/04 08:11:22;;;;;;;29.80;16.38;;;4.70;99.90;;;;;;20909884;28;20501;-56
2023/03/04 08:21:26;;;;;;;15.63;9.40;;;5.60;99.90;;;;;;20907424;28;20040;-54
2023/03/04 08:31:28;;;;;;;14.50;8.48;;;6.20;99.90;;;;;;20906706;28;20040;-65
2023/03/04 08:41:29;;;;;;;14.55;9.43;;;6.70;99.90;;;;;;20905264;28;20028;-65
2023/03/04 08:51:31;;;;;;;15.88;9.07;;;6.90;99.90;;;;;;20904004;28;20454;-56
2023/03/04 09:01:33;;;;;;;15.80;9.15;;;7.30;99.90;;;;;;20903863;28;20066;-57
2023/03/04 09:11:35;;;;;;;13.55;8.20;;;7.70;99.90;;;;;;20903811;28;20445;-65
2023/03/04 09:21:36;;;;;;;11.45;6.93;;;7.90;99.90;;;;;;20903182;28;20086;-57
2023/03/04 09:31:38;;;;;;;10.82;6.55;;;8.50;99.90;;;;;;20903181;28;20081;-55
2023/03/04 09:41:44;;;;;;;14.70;6.53;;;9.00;99.90;;;;;;20921444;28;20470;-57
2023/03/04 09:52:03;;;;;;;12.77;5.60;;;9.20;99.90;;;;;;20929656;28;20083;-56
2023/03/04 10:02:31;;;;;;;7.40;4.43;;;9.60;99.90;;;;;;20930524;28;20025;-55
2023/03/04 10:12:38;;;;;;;10.25;4.80;;;9.70;99.70;;;;;;20929166;28;20059;-65
2023/03/04 10:22:50;;;;;;;7.00;4.25;;;9.70;99.10;;;;;;20928665;28;20088;-63
2023/03/04 10:32:52;;;;;;;10.93;4.65;;;10.00;99.70;;;;;;20928408;28;20094;-59
2023/03/04 10:42:54;;;;;;;6.65;4.70;;;10.30;97.80;;;;;;20927807;28;20045;-65
2023/03/04 10:52:56;;;;;;;9.65;5.80;;;10.30;98.20;;;;;;20917758;28;20037;-64
2023/03/04 11:03:23;;;;;;;11.40;6.10;;;10.60;97.70;;;;;;20914008;28;20033;-56
2023/03/04 11:13:26;;;;;;;8.25;5.10;;;10.40;97.30;;;;;;20912839;28;20067;-64
2023/03/04 11:23:38;;;;;;;12.43;7.28;;;10.80;97.40;;;;;;20911941;28;20596;-54
2023/03/04 11:33:48;;;;;;;16.63;11.35;;;11.20;98.80;;;;;;20911419;28;20312;-56
2023/03/04 11:43:50;;;;;;;19.40;12.70;;;11.30;98.70;;;;;;20909355;28;20048;-64
2023/03/04 11:54:39;;;;;;;22.33;14.63;;;11.60;99.40;;;;;;20909852;28;20429;-56
2023/03/04 12:04:50;;;;;;;21.50;14.15;;;11.20;99.90;;;;;;20816359;28;20415;-61
2023/03/04 12:15:11;;;;;;;24.77;16.35;;;11.10;99.20;;;;;;20816289;28;20553;-61
2023/03/04 12:25:31;;;;;;;26.27;17.52;;;11.20;99.90;;;;;;20798501;28;20105;-61
2023/03/04 12:36:24;;;;;;;26.93;17.87;;;11.30;99.90;;;;;;20869093;28;20375;-60
2023/03/04 12:46:55;;;;;;;24.73;17.85;;;11.50;99.90;;;;;;20813471;28;20049;-60
2023/03/04 12:57:03;;;;;;;31.33;19.80;;;11.40;99.90;;;;;;20796617;28;20091;-60
2023/03/04 13:07:20;;;;;;;31.88;19.92;;;11.50;99.90;;;;;;20812198;28;20049;-51
2023/03/04 13:17:42;;;;;;;29.98;19.38;;;11.60;99.90;;;;;;20849049;28;20453;-60
2023/03/04 13:27:48;;;;;;;33.53;21.42;;;11.70;99.90;;;;;;20903051;28;20391;-60
2023/03/04 13:37:58;;;;;;;32.53;21.65;;;11.70;99.90;;;;;;20900963;28;20033;-52
2023/03/04 13:48:03;;;;;;;35.28;22.85;;;11.60;99.90;;;;;;20907475;28;20029;-62
2023/03/04 13:58:26;;;;;;;32.95;21.50;;;11.20;99.90;;;;;;20955017;28;20188;-64
2023/03/04 14:08:27;;;;;;;33.33;21.25;;;10.30;99.90;;;;;;20911548;28;20061;-67
2023/03/04 14:18:29;;;;;;;37.33;23.88;;;9.70;99.90;;;;;;20902078;28;20049;-67
2023/03/04 14:28:30;;;;;;;36.78;22.35;;;9.00;99.90;;;;;;20920505;28;20109;-67
2023/03/04 14:38:36;;;;;;;34.75;23.05;;;8.60;99.90;;;;;;20973483;28;20075;-59
2023/03/04 14:48:43;;;;;;;36.22;22.50;;;8.50;99.90;;;;;;20915810;28;20025;-66
2023/03/04 14:58:54;;;;;;;36.10;21.70;;;7.90;99.90;;;;;;20914027;28;20033;-60
2023/03/04 15:09:16;;;;;;;36.83;22.73;;;7.50;99.90;;;;;;20914666;28;20106;-59
2023/03/04 15:19:26;;;;;;;38.22;24.05;;;7.30;99.90;;;;;;20912490;28;20453;-67
2023/03/04 15:29:28;;;;;;;42.03;24.90;;;6.80;99.90;;;;;;20912157;28;20037;-67
2023/03/04 15:39:29;;;;;;;43.42;25.02;;;6.60;99.90;;;;;;20909472;28;20409;-59
2023/03/04 15:49:31;;;;;;;37.47;23.65;;;6.30;99.90;;;;;;20936148;28;20037;-67
2023/03/04 15:59:33;;;;;;;36.65;22.00;;;5.80;99.90;;;;;;20918713;28;20551;-67
2023/03/04 16:09:35;;;;;;;29.38;16.75;;;5.10;99.90;;;;;;20908539;28;20401;-66
2023/03/04 16:19:36;;;;;;;19.58;11.57;;;4.20;99.90;;;;;;20907365;28;20041;-66
2023/03/04 16:29:38;;;;;;;33.28;18.85;;;3.50;99.90;;;;;;20905758;28;20040;-58
2023/03/04 16:39:44;;;;;;;25.13;13.35;;;3.00;99.90;;;;;;20932857;28;20036;-67
2023/03/04 16:49:50;;;;;;;20.92;12.02;;;2.50;99.90;;;;;;20905652;28;20401;-61
2023/03/04 16:59:53;;;;;;;18.25;9.80;;;2.30;99.90;;;;;;20905131;28;20041;-59
2023/03/04 17:09:55;;;;;;;17.00;8.70;;;2.00;99.90;;;;;;20903570;28;20045;-66
2023/03/04 17:19:57;;;;;;;15.95;7.55;;;1.80;99.90;;;;;;20903647;28;20379;-67
2023/03/04 17:29:58;;;;;;;21.27;12.18;;;1.60;99.90;;;;;;20903545;28;20049;-67
2023/03/04 17:40:03;;;;;;;20.92;11.55;;;1.40;99.90;;;;;;20902818;28;20032;-59
2023/03/04 17:50:06;;;;;;;23.67;11.43;;;1.30;99.90;;;;;;20902486;28;20033;-67
2023/03/04 18:00:08;;;;;;;13.60;7.38;;;1.10;99.90;;;;;;20909148;28;20037;-66
2023/03/04 18:10:10;;;;;;;16.13;7.78;;;1.00;99.90;;;;;;20900321;28;20060;-68
2023/03/04 18:20:12;;;;;;;11.98;6.15;;;1.10;99.90;;;;;;20914689;28;20037;-59
2023/03/04 18:30:19;;;;;;;8.52;4.53;;;1.00;99.90;;;;;;20914060;28;20087;-59
2023/03/04 18:40:21;;;;;;;9.40;4.43;;;0.90;99.90;;;;;;20915714;28;20541;-59
2023/03/04 18:50:23;;;;;;;4.82;2.53;;;0.80;99.90;;;;;;20914646;28;20099;-59
2023/03/04 19:00:25;;;;;;;5.47;2.55;;;0.80;99.90;;;;;;20912894;28;20087;-66
2023/03/04 19:10:27;;;;;;;6.57;2.90;;;0.70;99.90;;;;;;20913015;28;20064;-66
2023/03/04 19:20:29;;;;;;;9.00;3.75;;;0.70;99.90;;;;;;20912741;28;20036;-67
2023/03/04 19:30:32;;;;;;;6.90;3.42;;;0.80;99.90;;;;;;20911711;28;20054;-66
2023/03/04 19:40:39;;;;;;;4.68;2.72;;;0.80;99.90;;;;;;20910939;28;20044;-60
2023/03/04 19:50:40;;;;;;;4.70;2.17;;;1.00;99.90;;;;;;20909255;28;20107;-58
2023/03/04 20:00:43;;;;;;;2.67;1.67;;;0.90;99.90;;;;;;20909418;28;20033;-59
2023/03/04 20:10:44;;;;;;;5.72;1.73;;;1.00;99.90;;;;;;20910409;28;20040;-67
2023/03/04 20:20:47;;;;;;;3.72;1.90;;;0.90;99.90;;;;;;20907545;28;20091;-66
2023/03/04 20:30:49;;;;;;;7.40;2.67;;;0.80;99.90;;;;;;20933880;28;20041;-59
2023/03/04 20:40:51;;;;;;;5.78;2.50;;;0.80;99.90;;;;;;20905807;28;20037;-59
2023/03/04 20:50:52;;;;;;;5.63;2.63;;;0.80;99.90;;;;;;20904225;28;20394;-59
2023/03/04 21:00:54;;;;;;;5.45;2.47;;;0.80;99.90;;;;;;20886818;28;20045;-66
2023/03/04 21:10:56;;;;;;;4.88;2.00;;;0.80;99.90;;;;;;20901138;28;20045;-66
2023/03/04 21:20:58;;;;;;;5.45;2.30;;;0.90;99.90;;;;;;20941650;28;20033;-66
2023/03/04 21:31:01;;;;;;;7.22;3.38;;;0.90;99.90;;;;;;20901005;28;20057;-66
2023/03/04 21:41:03;;;;;;;7.80;3.17;;;1.00;99.90;;;;;;20902563;28;20094;-59
2023/03/04 21:51:06;;;;;;;6.75;2.20;;;1.10;99.90;;;;;;20902177;28;20083;-66
2023/03/04 22:01:13;;;;;;;6.22;2.50;;;1.00;99.90;;;;;;20899396;28;20047;-66
2023/03/04 22:11:15;;;;;;;5.00;2.25;;;0.90;99.90;;;;;;20902339;28;20037;-66
2023/03/04 22:21:19;;;;;;;6.47;2.30;;;0.90;99.90;;;;;;20912410;28;20043;-58
2023/03/04 22:31:28;;;;;;;6.20;2.75;;;0.90;99.90;;;;;;20900664;28;20040;-59
2023/03/04 22:41:30;;;;;;;5.15;2.35;;;0.80;99.90;;;;;;20900071;28;20540;-59
2023/03/04 22:51:32;;;;;;;3.90;2.03;;;0.80;99.90;;;;;;20913604;28;20099;-59
2023/03/04 23:01:34;;;;;;;5.57;1.77;;;0.80;99.90;;;;;;20914300;28;20029;-59
2023/03/04 23:11:38;;;;;;;2.30;1.23;;;0.70;99.90;;;;;;20913366;28;20098;-59
2023/03/04 23:21:40;;;;;;;2.75;0.90;;;0.70;99.90;;;;;;20913032;28;20029;-59
2023/03/04 23:31:43;;;;;;;2.75;1.05;;;0.50;99.90;;;;;;20910804;28;20021;-66
2023/03/04 23:41:44;;;;;;;3.00;1.38;;;0.30;99.90;;;;;;20911774;28;20040;-59
2023/03/04 23:51:46;;;;;;;2.42;1.15;;;0.30;99.70;;;;;;20908963;28;20037;-66
